HR-Groep



Recente activiteiten




spacer
U bent hier:  >  Assortiment HR Groep  >  Verkeersveiligheid  >  Wegbebakening tijdelijk  >  Werk in Uitvoering borden  >  L11
L11

L11







Art.code Artikelomschrijving
Afmeting
Uitvoering
010206799 010206799 WIU model L11-2-01C18--t 600x700mm Klasse II
010206819 010206819 WIU model L11-2-01C18--t 600x700mm DG3 Fluor
010206842 010206842 WIU model L11-2-01C18--t 600x900mm Klasse II
010206848 010206848 WIU model L11-2-01C18--t 600x900mm DG3 Fluor
010206946 010206946 WIU model L11-2-01C18--t 900x1300mm Klasse II
010206963 010206963 WIU model L11-2-01C18--t 900x1300mm DG3 Fluor
010207000 010207000 WIU model L11-2-01C18--t 900x1600mm Klasse II
010207017 010207017 WIU model L11-2-01C18--t 900x1600mm DG3 Fluor
010207054 010207054 WIU model L11-2-01C18--t 1350x1950mm Klasse II
010207072 010207072 WIU model L11-2-01C18--t 1350x1950mm DG3 Fluor
010207093 010207093 WIU model L11-2-01C18--t 1350x2350mm Klasse II
010207112 010207112 WIU model L11-2-01C18--t 1350x2350mm DG3 Fluor
010206800 010206800 WIU model L11-3-01C18--t 600x700mm Klasse II
010206820 010206820 WIU model L11-3-01C18--t 600x700mm DG3 Fluor
010206843 010206843 WIU model L11-3-01C18--t 600x900mm Klasse II
010206863 010206863 WIU model L11-3-01C18--t 600x900mm DG3 Fluor
010207048 010207048 WIU model L11-3-01C18--t 1200x1300mm Klasse II
010207049 010207049 WIU model L11-3-01C18--t 1200x1300mm DG3 Fluor
010207050 010207050 WIU model L11-3-01C18--t 1200x1600mm Klasse II
010207051 010207051 WIU model L11-3-01C18--t 1200x1600mm DG3 Fluor
010207055 010207055 WIU model L11-3-01C18--t 1350x1950mm Klasse II
010207073 010207073 WIU model L11-3-01C18--t 1350x1950mm DG3 Fluor
010207094 010207094 WIU model L11-3-01C18--t 1350x2350mm Klasse II
010207113 010207113 WIU model L11-3-01C18--t 1350x2350mm DG3 Fluor
010206801 010206801 WIU model L11-4-01C18--t 600x700mm Klasse II
010206821 010206821 WIU model L11-4-01C18--t 600x700mm DG3 Fluor
010206849 010206849 WIU model L11-4-01C18--t 600x900mm Klasse II
010206864 010206864 WIU model L11-4-01C18--t 600x900mm DG3 Fluor
010206947 010206947 WIU model L11-4-01C18--t 900x1300mm Klasse II
010206964 010206964 WIU model L11-4-01C18--t 900x1300mm DG3 Fluor
010207001 010207001 WIU model L11-4-01C18--t 900x1600mm Klasse II
010207018 010207018 WIU model L11-4-01C18--t 900x1600mm DG3 Fluor
010207056 010207056 WIU model L11-4-01C18--t 1350x1950mm Klasse II
010207074 010207074 WIU model L11-4-01C18--t 1350x1950mm DG3 Fluor
010207095 010207095 WIU model L11-4-01C18--t 1350x2350mm Klasse II
010207114 010207114 WIU model L11-4-01C18--t 1350x2350mm DG3 Fluor